sensor_id;sensor_type;location;lat;lon;timestamp;P1;durP1;ratioP1;P2;durP2;ratioP2
63536;SDS011;49686;51.880;5.632;2023-07-20T00:01:32;15.07;;;8.95;;
63536;SDS011;49686;51.880;5.632;2023-07-20T00:03:59;19.52;;;10.60;;
63536;SDS011;49686;51.880;5.632;2023-07-20T00:06:26;18.92;;;10.95;;
63536;SDS011;49686;51.880;5.632;2023-07-20T00:08:53;17.77;;;10.48;;
63536;SDS011;49686;51.880;5.632;2023-07-20T00:11:25;16.65;;;10.65;;
63536;SDS011;49686;51.880;5.632;2023-07-20T00:13:53;15.57;;;10.30;;
63536;SDS011;49686;51.880;5.632;2023-07-20T00:16:22;16.83;;;10.70;;
63536;SDS011;49686;51.880;5.632;2023-07-20T00:18:50;14.93;;;9.88;;
63536;SDS011;49686;51.880;5.632;2023-07-20T00:21:16;14.10;;;9.07;;
63536;SDS011;49686;51.880;5.632;2023-07-20T00:23:43;12.63;;;9.43;;
63536;SDS011;49686;51.880;5.632;2023-07-20T00:26:10;11.00;;;8.80;;
63536;SDS011;49686;51.880;5.632;2023-07-20T00:28:38;13.30;;;8.57;;
63536;SDS011;49686;51.880;5.632;2023-07-20T00:31:05;11.15;;;8.60;;
63536;SDS011;49686;51.880;5.632;2023-07-20T00:33:32;9.55;;;7.13;;
63536;SDS011;49686;51.880;5.632;2023-07-20T00:35:59;11.93;;;7.95;;
63536;SDS011;49686;51.880;5.632;2023-07-20T00:38:26;12.55;;;9.05;;
63536;SDS011;49686;51.880;5.632;2023-07-20T00:40:53;14.55;;;9.40;;
63536;SDS011;49686;51.880;5.632;2023-07-20T00:43:19;12.32;;;9.35;;
63536;SDS011;49686;51.880;5.632;2023-07-20T00:45:47;11.93;;;8.85;;
63536;SDS011;49686;51.880;5.632;2023-07-20T00:48:15;12.63;;;8.48;;
63536;SDS011;49686;51.880;5.632;2023-07-20T00:50:42;11.20;;;8.40;;
63536;SDS011;49686;51.880;5.632;2023-07-20T00:53:09;10.95;;;8.70;;
63536;SDS011;49686;51.880;5.632;2023-07-20T00:55:36;11.55;;;8.95;;
63536;SDS011;49686;51.880;5.632;2023-07-20T00:58:03;11.32;;;8.23;;
63536;SDS011;49686;51.880;5.632;2023-07-20T01:00:31;12.68;;;9.63;;
63536;SDS011;49686;51.880;5.632;2023-07-20T01:02:59;12.35;;;8.85;;
63536;SDS011;49686;51.880;5.632;2023-07-20T01:05:30;11.98;;;8.45;;
63536;SDS011;49686;51.880;5.632;2023-07-20T01:08:06;11.70;;;8.90;;
63536;SDS011;49686;51.880;5.632;2023-07-20T01:10:40;11.27;;;8.70;;
63536;SDS011;49686;51.880;5.632;2023-07-20T01:13:10;13.15;;;8.27;;
63536;SDS011;49686;51.880;5.632;2023-07-20T01:15:40;11.75;;;8.75;;
63536;SDS011;49686;51.880;5.632;2023-07-20T01:18:08;10.00;;;7.45;;
63536;SDS011;49686;51.880;5.632;2023-07-20T01:20:35;12.35;;;8.93;;
63536;SDS011;49686;51.880;5.632;2023-07-20T01:26:08;11.85;;;8.52;;
63536;SDS011;49686;51.880;5.632;2023-07-20T01:28:54;11.90;;;7.53;;
63536;SDS011;49686;51.880;5.632;2023-07-20T01:31:35;9.18;;;7.50;;
63536;SDS011;49686;51.880;5.632;2023-07-20T01:34:04;10.38;;;7.68;;
63536;SDS011;49686;51.880;5.632;2023-07-20T01:36:34;9.43;;;7.85;;
63536;SDS011;49686;51.880;5.632;2023-07-20T01:39:03;10.43;;;7.30;;
63536;SDS011;49686;51.880;5.632;2023-07-20T01:41:32;9.75;;;7.57;;
63536;SDS011;49686;51.880;5.632;2023-07-20T01:44:00;11.18;;;7.38;;
63536;SDS011;49686;51.880;5.632;2023-07-20T01:46:29;10.10;;;6.45;;
63536;SDS011;49686;51.880;5.632;2023-07-20T01:48:57;7.57;;;5.95;;
63536;SDS011;49686;51.880;5.632;2023-07-20T01:51:24;7.45;;;6.00;;
63536;SDS011;49686;51.880;5.632;2023-07-20T01:53:51;7.00;;;5.65;;
63536;SDS011;49686;51.880;5.632;2023-07-20T01:56:18;7.10;;;5.00;;
63536;SDS011;49686;51.880;5.632;2023-07-20T01:58:45;6.75;;;5.15;;
63536;SDS011;49686;51.880;5.632;2023-07-20T02:01:12;6.32;;;4.90;;
63536;SDS011;49686;51.880;5.632;2023-07-20T02:03:39;4.88;;;3.83;;
63536;SDS011;49686;51.880;5.632;2023-07-20T02:06:07;5.60;;;4.78;;
63536;SDS011;49686;51.880;5.632;2023-07-20T02:08:34;6.97;;;4.28;;
63536;SDS011;49686;51.880;5.632;2023-07-20T02:11:02;6.28;;;4.20;;
63536;SDS011;49686;51.880;5.632;2023-07-20T02:13:29;5.72;;;3.97;;
63536;SDS011;49686;51.880;5.632;2023-07-20T02:15:56;5.88;;;3.90;;
63536;SDS011;49686;51.880;5.632;2023-07-20T02:18:23;6.25;;;5.05;;
63536;SDS011;49686;51.880;5.632;2023-07-20T02:20:50;6.57;;;4.05;;
63536;SDS011;49686;51.880;5.632;2023-07-20T02:23:20;5.50;;;4.47;;
63536;SDS011;49686;51.880;5.632;2023-07-20T02:25:47;5.00;;;4.30;;
63536;SDS011;49686;51.880;5.632;2023-07-20T02:28:14;6.05;;;4.47;;
63536;SDS011;49686;51.880;5.632;2023-07-20T02:30:41;4.63;;;3.88;;
63536;SDS011;49686;51.880;5.632;2023-07-20T02:33:08;5.70;;;3.92;;
63536;SDS011;49686;51.880;5.632;2023-07-20T02:35:35;6.22;;;5.10;;
63536;SDS011;49686;51.880;5.632;2023-07-20T02:38:02;5.07;;;4.20;;
63536;SDS011;49686;51.880;5.632;2023-07-20T02:40:30;4.30;;;3.55;;
63536;SDS011;49686;51.880;5.632;2023-07-20T02:42:57;5.55;;;4.10;;
63536;SDS011;49686;51.880;5.632;2023-07-20T02:45:24;4.53;;;3.60;;
63536;SDS011;49686;51.880;5.632;2023-07-20T02:47:51;5.82;;;4.28;;
63536;SDS011;49686;51.880;5.632;2023-07-20T02:50:17;5.88;;;3.60;;
63536;SDS011;49686;51.880;5.632;2023-07-20T02:52:44;6.07;;;4.78;;
63536;SDS011;49686;51.880;5.632;2023-07-20T02:55:11;5.25;;;4.25;;
63536;SDS011;49686;51.880;5.632;2023-07-20T02:57:39;5.25;;;4.10;;
63536;SDS011;49686;51.880;5.632;2023-07-20T03:00:07;5.70;;;3.80;;
63536;SDS011;49686;51.880;5.632;2023-07-20T03:02:34;5.40;;;4.30;;
63536;SDS011;49686;51.880;5.632;2023-07-20T03:05:01;6.60;;;4.55;;
63536;SDS011;49686;51.880;5.632;2023-07-20T03:07:28;5.32;;;4.15;;
63536;SDS011;49686;51.880;5.632;2023-07-20T03:09:55;6.68;;;4.72;;
63536;SDS011;49686;51.880;5.632;2023-07-20T03:12:22;4.90;;;4.40;;
63536;SDS011;49686;51.880;5.632;2023-07-20T03:14:50;6.32;;;4.82;;
63536;SDS011;49686;51.880;5.632;2023-07-20T03:17:17;6.57;;;4.65;;
63536;SDS011;49686;51.880;5.632;2023-07-20T03:19:44;6.13;;;4.57;;
63536;SDS011;49686;51.880;5.632;2023-07-20T03:22:10;5.72;;;4.25;;
63536;SDS011;49686;51.880;5.632;2023-07-20T03:24:37;5.80;;;4.70;;
63536;SDS011;49686;51.880;5.632;2023-07-20T03:27:04;6.78;;;4.75;;
63536;SDS011;49686;51.880;5.632;2023-07-20T03:29:31;8.02;;;4.88;;
63536;SDS011;49686;51.880;5.632;2023-07-20T03:32:00;9.07;;;5.75;;
63536;SDS011;49686;51.880;5.632;2023-07-20T03:34:27;8.07;;;5.63;;
63536;SDS011;49686;51.880;5.632;2023-07-20T03:36:53;9.13;;;5.78;;
63536;SDS011;49686;51.880;5.632;2023-07-20T03:39:21;7.28;;;6.13;;
63536;SDS011;49686;51.880;5.632;2023-07-20T03:41:49;9.20;;;6.65;;
63536;SDS011;49686;51.880;5.632;2023-07-20T03:44:15;7.45;;;5.60;;
63536;SDS011;49686;51.880;5.632;2023-07-20T03:46:42;7.75;;;6.07;;
63536;SDS011;49686;51.880;5.632;2023-07-20T03:49:11;7.38;;;5.95;;
63536;SDS011;49686;51.880;5.632;2023-07-20T03:51:38;8.73;;;6.10;;
63536;SDS011;49686;51.880;5.632;2023-07-20T03:54:05;9.23;;;6.88;;
63536;SDS011;49686;51.880;5.632;2023-07-20T03:56:31;7.00;;;6.30;;
63536;SDS011;49686;51.880;5.632;2023-07-20T03:58:58;7.50;;;6.32;;
63536;SDS011;49686;51.880;5.632;2023-07-20T04:01:25;9.27;;;6.50;;
63536;SDS011;49686;51.880;5.632;2023-07-20T04:03:52;10.18;;;6.63;;
63536;SDS011;49686;51.880;5.632;2023-07-20T04:06:20;9.95;;;6.60;;
63536;SDS011;49686;51.880;5.632;2023-07-20T04:08:47;8.50;;;5.97;;
63536;SDS011;49686;51.880;5.632;2023-07-20T04:11:14;6.63;;;5.70;;
63536;SDS011;49686;51.880;5.632;2023-07-20T04:13:41;6.68;;;5.47;;
63536;SDS011;49686;51.880;5.632;2023-07-20T04:16:08;7.93;;;5.57;;
63536;SDS011;49686;51.880;5.632;2023-07-20T04:18:35;6.15;;;5.18;;
63536;SDS011;49686;51.880;5.632;2023-07-20T04:21:02;7.20;;;5.22;;
63536;SDS011;49686;51.880;5.632;2023-07-20T04:23:30;7.20;;;5.45;;
63536;SDS011;49686;51.880;5.632;2023-07-20T04:25:57;7.40;;;5.60;;
63536;SDS011;49686;51.880;5.632;2023-07-20T04:28:24;8.57;;;5.63;;
63536;SDS011;49686;51.880;5.632;2023-07-20T04:30:51;7.68;;;5.22;;
63536;SDS011;49686;51.880;5.632;2023-07-20T04:33:18;8.02;;;6.78;;
63536;SDS011;49686;51.880;5.632;2023-07-20T04:35:46;9.88;;;7.35;;
63536;SDS011;49686;51.880;5.632;2023-07-20T04:38:15;7.13;;;6.07;;
63536;SDS011;49686;51.880;5.632;2023-07-20T04:40:44;5.43;;;4.63;;
63536;SDS011;49686;51.880;5.632;2023-07-20T04:43:11;3.90;;;3.38;;
63536;SDS011;49686;51.880;5.632;2023-07-20T04:45:38;3.67;;;3.03;;
63536;SDS011;49686;51.880;5.632;2023-07-20T04:48:09;4.60;;;3.00;;
63536;SDS011;49686;51.880;5.632;2023-07-20T04:50:38;3.70;;;2.50;;
63536;SDS011;49686;51.880;5.632;2023-07-20T04:53:06;2.65;;;2.13;;
63536;SDS011;49686;51.880;5.632;2023-07-20T04:55:33;4.03;;;2.38;;
63536;SDS011;49686;51.880;5.632;2023-07-20T04:58:01;3.08;;;1.95;;
63536;SDS011;49686;51.880;5.632;2023-07-20T05:00:28;3.60;;;2.40;;
63536;SDS011;49686;51.880;5.632;2023-07-20T05:02:55;3.13;;;2.15;;
63536;SDS011;49686;51.880;5.632;2023-07-20T05:05:22;3.45;;;2.20;;
63536;SDS011;49686;51.880;5.632;2023-07-20T05:07:49;5.93;;;2.38;;
63536;SDS011;49686;51.880;5.632;2023-07-20T05:10:16;4.50;;;2.90;;
63536;SDS011;49686;51.880;5.632;2023-07-20T05:12:43;4.47;;;2.70;;
63536;SDS011;49686;51.880;5.632;2023-07-20T05:15:12;5.03;;;3.20;;
63536;SDS011;49686;51.880;5.632;2023-07-20T05:17:39;6.82;;;2.75;;
63536;SDS011;49686;51.880;5.632;2023-07-20T05:20:07;5.73;;;3.30;;
63536;SDS011;49686;51.880;5.632;2023-07-20T05:22:34;6.10;;;3.40;;
63536;SDS011;49686;51.880;5.632;2023-07-20T05:25:01;8.25;;;3.00;;
63536;SDS011;49686;51.880;5.632;2023-07-20T05:27:28;3.28;;;2.88;;
63536;SDS011;49686;51.880;5.632;2023-07-20T05:29:55;4.93;;;3.10;;
63536;SDS011;49686;51.880;5.632;2023-07-20T05:32:23;4.18;;;3.15;;
63536;SDS011;49686;51.880;5.632;2023-07-20T05:34:51;6.38;;;3.33;;
63536;SDS011;49686;51.880;5.632;2023-07-20T05:37:18;6.90;;;4.47;;
63536;SDS011;49686;51.880;5.632;2023-07-20T05:39:45;5.82;;;3.50;;
63536;SDS011;49686;51.880;5.632;2023-07-20T05:42:12;5.47;;;3.42;;
63536;SDS011;49686;51.880;5.632;2023-07-20T05:44:39;3.75;;;2.97;;
63536;SDS011;49686;51.880;5.632;2023-07-20T05:47:07;4.87;;;2.77;;
63536;SDS011;49686;51.880;5.632;2023-07-20T05:49:35;3.33;;;3.00;;
63536;SDS011;49686;51.880;5.632;2023-07-20T05:52:02;10.20;;;3.28;;
63536;SDS011;49686;51.880;5.632;2023-07-20T05:54:29;4.30;;;2.90;;
63536;SDS011;49686;51.880;5.632;2023-07-20T05:56:56;3.65;;;2.85;;
63536;SDS011;49686;51.880;5.632;2023-07-20T05:59:24;6.15;;;3.10;;
63536;SDS011;49686;51.880;5.632;2023-07-20T06:01:50;3.28;;;2.63;;
63536;SDS011;49686;51.880;5.632;2023-07-20T06:04:17;2.70;;;2.40;;
63536;SDS011;49686;51.880;5.632;2023-07-20T06:06:46;2.53;;;2.30;;
63536;SDS011;49686;51.880;5.632;2023-07-20T06:09:13;4.55;;;2.33;;
63536;SDS011;49686;51.880;5.632;2023-07-20T06:11:40;3.30;;;2.35;;
63536;SDS011;49686;51.880;5.632;2023-07-20T06:14:07;3.65;;;1.90;;
63536;SDS011;49686;51.880;5.632;2023-07-20T06:16:34;3.42;;;2.22;;
63536;SDS011;49686;51.880;5.632;2023-07-20T06:19:00;3.78;;;1.30;;
63536;SDS011;49686;51.880;5.632;2023-07-20T06:21:27;3.13;;;1.70;;
63536;SDS011;49686;51.880;5.632;2023-07-20T06:23:55;2.15;;;1.60;;
63536;SDS011;49686;51.880;5.632;2023-07-20T06:26:23;3.33;;;2.00;;
63536;SDS011;49686;51.880;5.632;2023-07-20T06:28:50;1.90;;;1.70;;
63536;SDS011;49686;51.880;5.632;2023-07-20T06:31:17;3.60;;;1.60;;
63536;SDS011;49686;51.880;5.632;2023-07-20T06:33:44;2.53;;;2.03;;
63536;SDS011;49686;51.880;5.632;2023-07-20T06:36:11;2.05;;;1.70;;
63536;SDS011;49686;51.880;5.632;2023-07-20T06:38:38;3.47;;;1.83;;
63536;SDS011;49686;51.880;5.632;2023-07-20T06:41:06;2.65;;;1.70;;
63536;SDS011;49686;51.880;5.632;2023-07-20T06:43:36;3.45;;;2.00;;
63536;SDS011;49686;51.880;5.632;2023-07-20T06:46:06;2.60;;;2.20;;
63536;SDS011;49686;51.880;5.632;2023-07-20T06:48:33;2.25;;;1.70;;
63536;SDS011;49686;51.880;5.632;2023-07-20T06:51:20;2.42;;;2.00;;
63536;SDS011;49686;51.880;5.632;2023-07-20T06:53:47;3.13;;;1.83;;
63536;SDS011;49686;51.880;5.632;2023-07-20T06:56:15;3.00;;;1.95;;
63536;SDS011;49686;51.880;5.632;2023-07-20T06:58:42;1.77;;;1.50;;
63536;SDS011;49686;51.880;5.632;2023-07-20T07:01:09;1.65;;;1.48;;
63536;SDS011;49686;51.880;5.632;2023-07-20T07:03:36;2.05;;;1.63;;
63536;SDS011;49686;51.880;5.632;2023-07-20T07:06:03;1.60;;;1.30;;
63536;SDS011;49686;51.880;5.632;2023-07-20T07:08:30;1.73;;;1.13;;
63536;SDS011;49686;51.880;5.632;2023-07-20T07:10:57;1.25;;;1.10;;
63536;SDS011;49686;51.880;5.632;2023-07-20T07:13:25;1.55;;;1.23;;
63536;SDS011;49686;51.880;5.632;2023-07-20T07:15:52;2.17;;;1.13;;
63536;SDS011;49686;51.880;5.632;2023-07-20T07:18:19;1.65;;;1.00;;
63536;SDS011;49686;51.880;5.632;2023-07-20T07:20:52;0.80;;;0.80;;
63536;SDS011;49686;51.880;5.632;2023-07-20T07:23:19;3.92;;;0.90;;
63536;SDS011;49686;51.880;5.632;2023-07-20T07:25:46;1.52;;;1.10;;
63536;SDS011;49686;51.880;5.632;2023-07-20T07:28:13;2.42;;;1.45;;
63536;SDS011;49686;51.880;5.632;2023-07-20T07:30:41;2.08;;;1.30;;
63536;SDS011;49686;51.880;5.632;2023-07-20T07:33:08;1.77;;;1.40;;
63536;SDS011;49686;51.880;5.632;2023-07-20T07:35:35;1.77;;;1.67;;
63536;SDS011;49686;51.880;5.632;2023-07-20T07:38:02;2.72;;;1.40;;
63536;SDS011;49686;51.880;5.632;2023-07-20T07:40:49;2.15;;;1.20;;
63536;SDS011;49686;51.880;5.632;2023-07-20T07:43:16;2.58;;;1.70;;
63536;SDS011;49686;51.880;5.632;2023-07-20T07:45:44;1.25;;;0.82;;
63536;SDS011;49686;51.880;5.632;2023-07-20T07:48:11;1.40;;;0.90;;
63536;SDS011;49686;51.880;5.632;2023-07-20T07:50:37;1.20;;;0.82;;
63536;SDS011;49686;51.880;5.632;2023-07-20T07:53:04;2.50;;;0.93;;
63536;SDS011;49686;51.880;5.632;2023-07-20T07:55:31;1.50;;;1.35;;
63536;SDS011;49686;51.880;5.632;2023-07-20T07:57:58;4.00;;;1.25;;
63536;SDS011;49686;51.880;5.632;2023-07-20T08:00:25;1.60;;;0.73;;
63536;SDS011;49686;51.880;5.632;2023-07-20T08:02:53;1.35;;;1.10;;
63536;SDS011;49686;51.880;5.632;2023-07-20T08:05:20;1.05;;;0.60;;
63536;SDS011;49686;51.880;5.632;2023-07-20T08:07:47;1.63;;;0.80;;
63536;SDS011;49686;51.880;5.632;2023-07-20T08:10:14;1.58;;;1.05;;
63536;SDS011;49686;51.880;5.632;2023-07-20T08:12:41;2.15;;;0.70;;
63536;SDS011;49686;51.880;5.632;2023-07-20T08:15:10;0.98;;;0.77;;
63536;SDS011;49686;51.880;5.632;2023-07-20T08:17:37;1.52;;;0.80;;
63536;SDS011;49686;51.880;5.632;2023-07-20T08:20:06;1.67;;;1.02;;
63536;SDS011;49686;51.880;5.632;2023-07-20T08:22:34;1.17;;;0.77;;
63536;SDS011;49686;51.880;5.632;2023-07-20T08:25:01;1.50;;;1.02;;
63536;SDS011;49686;51.880;5.632;2023-07-20T08:27:27;0.93;;;0.88;;
63536;SDS011;49686;51.880;5.632;2023-07-20T08:29:54;1.77;;;0.85;;
63536;SDS011;49686;51.880;5.632;2023-07-20T08:32:23;1.10;;;0.82;;
63536;SDS011;49686;51.880;5.632;2023-07-20T08:34:51;0.82;;;0.70;;
63536;SDS011;49686;51.880;5.632;2023-07-20T08:37:19;1.95;;;0.85;;
63536;SDS011;49686;51.880;5.632;2023-07-20T08:39:46;1.05;;;0.88;;
63536;SDS011;49686;51.880;5.632;2023-07-20T08:42:13;0.90;;;0.90;;
63536;SDS011;49686;51.880;5.632;2023-07-20T08:44:41;0.80;;;0.80;;
63536;SDS011;49686;51.880;5.632;2023-07-20T08:47:10;1.60;;;0.85;;
63536;SDS011;49686;51.880;5.632;2023-07-20T08:49:38;1.48;;;0.60;;
63536;SDS011;49686;51.880;5.632;2023-07-20T08:52:06;1.33;;;0.80;;
63536;SDS011;49686;51.880;5.632;2023-07-20T08:54:35;1.67;;;0.90;;
63536;SDS011;49686;51.880;5.632;2023-07-20T08:57:03;1.85;;;0.80;;
63536;SDS011;49686;51.880;5.632;2023-07-20T09:01:58;2.50;;;0.80;;
63536;SDS011;49686;51.880;5.632;2023-07-20T09:04:25;2.00;;;0.80;;
63536;SDS011;49686;51.880;5.632;2023-07-20T09:06:52;2.60;;;0.80;;
63536;SDS011;49686;51.880;5.632;2023-07-20T09:09:19;1.35;;;1.10;;
63536;SDS011;49686;51.880;5.632;2023-07-20T09:11:48;1.73;;;0.70;;
63536;SDS011;49686;51.880;5.632;2023-07-20T09:14:16;3.63;;;1.00;;
63536;SDS011;49686;51.880;5.632;2023-07-20T09:16:46;1.10;;;0.70;;
63536;SDS011;49686;51.880;5.632;2023-07-20T09:19:14;1.23;;;1.00;;
63536;SDS011;49686;51.880;5.632;2023-07-20T09:21:43;2.22;;;1.10;;
63536;SDS011;49686;51.880;5.632;2023-07-20T09:24:11;1.35;;;0.60;;
63536;SDS011;49686;51.880;5.632;2023-07-20T09:26:40;2.08;;;1.08;;
63536;SDS011;49686;51.880;5.632;2023-07-20T09:29:09;1.08;;;0.98;;
63536;SDS011;49686;51.880;5.632;2023-07-20T09:31:36;1.83;;;0.90;;
63536;SDS011;49686;51.880;5.632;2023-07-20T09:34:06;1.50;;;0.68;;
63536;SDS011;49686;51.880;5.632;2023-07-20T09:36:34;1.23;;;0.60;;
63536;SDS011;49686;51.880;5.632;2023-07-20T09:39:05;1.63;;;0.70;;
63536;SDS011;49686;51.880;5.632;2023-07-20T09:41:39;3.13;;;0.80;;
63536;SDS011;49686;51.880;5.632;2023-07-20T09:44:14;1.13;;;0.80;;
63536;SDS011;49686;51.880;5.632;2023-07-20T09:46:44;1.45;;;0.90;;
63536;SDS011;49686;51.880;5.632;2023-07-20T09:49:15;1.63;;;0.60;;
63536;SDS011;49686;51.880;5.632;2023-07-20T09:51:46;2.65;;;0.70;;
63536;SDS011;49686;51.880;5.632;2023-07-20T09:54:14;1.25;;;0.55;;
63536;SDS011;49686;51.880;5.632;2023-07-20T09:56:42;1.27;;;0.70;;
63536;SDS011;49686;51.880;5.632;2023-07-20T09:59:09;1.52;;;0.70;;
63536;SDS011;49686;51.880;5.632;2023-07-20T10:01:37;3.10;;;0.80;;
63536;SDS011;49686;51.880;5.632;2023-07-20T10:04:08;2.17;;;0.80;;
63536;SDS011;49686;51.880;5.632;2023-07-20T10:06:37;1.83;;;0.75;;
63536;SDS011;49686;51.880;5.632;2023-07-20T10:09:08;0.88;;;0.70;;
63536;SDS011;49686;51.880;5.632;2023-07-20T10:11:39;1.23;;;0.80;;
63536;SDS011;49686;51.880;5.632;2023-07-20T10:14:09;0.80;;;0.70;;
63536;SDS011;49686;51.880;5.632;2023-07-20T10:16:49;1.27;;;0.80;;
63536;SDS011;49686;51.880;5.632;2023-07-20T10:19:22;2.30;;;0.70;;
63536;SDS011;49686;51.880;5.632;2023-07-20T10:21:51;1.17;;;0.70;;
63536;SDS011;49686;51.880;5.632;2023-07-20T10:24:30;1.02;;;0.65;;
63536;SDS011;49686;51.880;5.632;2023-07-20T10:26:58;1.10;;;0.90;;
63536;SDS011;49686;51.880;5.632;2023-07-20T10:29:25;1.40;;;1.30;;
63536;SDS011;49686;51.880;5.632;2023-07-20T10:31:53;1.58;;;0.85;;
63536;SDS011;49686;51.880;5.632;2023-07-20T10:34:21;2.13;;;1.20;;
63536;SDS011;49686;51.880;5.632;2023-07-20T10:36:48;0.75;;;0.75;;
63536;SDS011;49686;51.880;5.632;2023-07-20T10:39:22;1.38;;;0.80;;
63536;SDS011;49686;51.880;5.632;2023-07-20T10:41:49;0.60;;;0.60;;
63536;SDS011;49686;51.880;5.632;2023-07-20T10:44:19;1.27;;;0.80;;
63536;SDS011;49686;51.880;5.632;2023-07-20T10:46:46;1.30;;;1.20;;
63536;SDS011;49686;51.880;5.632;2023-07-20T10:49:15;2.35;;;1.65;;
63536;SDS011;49686;51.880;5.632;2023-07-20T10:51:42;1.40;;;1.27;;
63536;SDS011;49686;51.880;5.632;2023-07-20T10:57:21;2.00;;;1.35;;
63536;SDS011;49686;51.880;5.632;2023-07-20T10:59:49;1.70;;;1.30;;
63536;SDS011;49686;51.880;5.632;2023-07-20T11:02:17;1.60;;;1.20;;
63536;SDS011;49686;51.880;5.632;2023-07-20T11:04:46;1.65;;;1.10;;
63536;SDS011;49686;51.880;5.632;2023-07-20T11:07:17;1.92;;;1.73;;
63536;SDS011;49686;51.880;5.632;2023-07-20T11:10:12;1.25;;;1.15;;
63536;SDS011;49686;51.880;5.632;2023-07-20T11:12:40;2.38;;;1.10;;
63536;SDS011;49686;51.880;5.632;2023-07-20T11:15:07;1.92;;;1.52;;
63536;SDS011;49686;51.880;5.632;2023-07-20T11:17:34;1.42;;;0.80;;
63536;SDS011;49686;51.880;5.632;2023-07-20T11:20:03;1.25;;;1.13;;
63536;SDS011;49686;51.880;5.632;2023-07-20T11:22:33;1.27;;;1.17;;
63536;SDS011;49686;51.880;5.632;2023-07-20T11:25:01;1.95;;;1.33;;
63536;SDS011;49686;51.880;5.632;2023-07-20T11:27:28;1.23;;;1.10;;
63536;SDS011;49686;51.880;5.632;2023-07-20T11:29:55;2.20;;;1.13;;
63536;SDS011;49686;51.880;5.632;2023-07-20T11:32:22;2.28;;;1.30;;
63536;SDS011;49686;51.880;5.632;2023-07-20T11:34:50;1.73;;;1.48;;
63536;SDS011;49686;51.880;5.632;2023-07-20T11:37:18;1.63;;;1.15;;
63536;SDS011;49686;51.880;5.632;2023-07-20T11:39:45;1.23;;;1.10;;
63536;SDS011;49686;51.880;5.632;2023-07-20T11:42:13;1.40;;;1.30;;
63536;SDS011;49686;51.880;5.632;2023-07-20T11:45:01;1.90;;;1.13;;
63536;SDS011;49686;51.880;5.632;2023-07-20T11:47:29;1.98;;;1.25;;
63536;SDS011;49686;51.880;5.632;2023-07-20T11:49:56;2.65;;;1.88;;
63536;SDS011;49686;51.880;5.632;2023-07-20T11:52:30;2.85;;;1.10;;
63536;SDS011;49686;51.880;5.632;2023-07-20T11:54:58;1.98;;;1.25;;
63536;SDS011;49686;51.880;5.632;2023-07-20T11:57:25;1.85;;;1.38;;
63536;SDS011;49686;51.880;5.632;2023-07-20T11:59:53;1.90;;;1.70;;
63536;SDS011;49686;51.880;5.632;2023-07-20T12:02:20;2.10;;;1.23;;
63536;SDS011;49686;51.880;5.632;2023-07-20T12:04:47;1.77;;;1.30;;
63536;SDS011;49686;51.880;5.632;2023-07-20T12:07:14;2.35;;;2.22;;
63536;SDS011;49686;51.880;5.632;2023-07-20T12:09:43;2.45;;;1.65;;
63536;SDS011;49686;51.880;5.632;2023-07-20T12:12:18;1.70;;;1.13;;
63536;SDS011;49686;51.880;5.632;2023-07-20T12:17:12;2.28;;;1.90;;
63536;SDS011;49686;51.880;5.632;2023-07-20T12:19:39;2.75;;;1.80;;
63536;SDS011;49686;51.880;5.632;2023-07-20T12:22:06;2.10;;;1.77;;
63536;SDS011;49686;51.880;5.632;2023-07-20T12:24:34;3.15;;;2.47;;
63536;SDS011;49686;51.880;5.632;2023-07-20T12:27:02;2.33;;;1.02;;
63536;SDS011;49686;51.880;5.632;2023-07-20T12:29:30;2.13;;;1.00;;
63536;SDS011;49686;51.880;5.632;2023-07-20T12:31:57;1.88;;;0.80;;
63536;SDS011;49686;51.880;5.632;2023-07-20T12:34:24;0.98;;;0.80;;
63536;SDS011;49686;51.880;5.632;2023-07-20T12:36:51;1.38;;;1.27;;
63536;SDS011;49686;51.880;5.632;2023-07-20T12:39:17;1.83;;;0.90;;
63536;SDS011;49686;51.880;5.632;2023-07-20T12:41:44;1.00;;;1.00;;
63536;SDS011;49686;51.880;5.632;2023-07-20T12:44:12;0.90;;;0.90;;
63536;SDS011;49686;51.880;5.632;2023-07-20T12:46:39;1.25;;;1.15;;
63536;SDS011;49686;51.880;5.632;2023-07-20T12:49:06;1.02;;;0.90;;
63536;SDS011;49686;51.880;5.632;2023-07-20T12:51:33;1.40;;;1.30;;
63536;SDS011;49686;51.880;5.632;2023-07-20T12:54:00;1.50;;;1.10;;
63536;SDS011;49686;51.880;5.632;2023-07-20T12:56:27;1.40;;;1.30;;
63536;SDS011;49686;51.880;5.632;2023-07-20T12:58:57;1.55;;;1.45;;
63536;SDS011;49686;51.880;5.632;2023-07-20T13:01:25;1.63;;;1.20;;
63536;SDS011;49686;51.880;5.632;2023-07-20T13:03:52;1.88;;;1.00;;
63536;SDS011;49686;51.880;5.632;2023-07-20T13:06:22;1.95;;;1.20;;
63536;SDS011;49686;51.880;5.632;2023-07-20T13:08:51;1.52;;;1.42;;
63536;SDS011;49686;51.880;5.632;2023-07-20T13:11:18;1.13;;;1.00;;
63536;SDS011;49686;51.880;5.632;2023-07-20T13:13:45;1.45;;;1.17;;
63536;SDS011;49686;51.880;5.632;2023-07-20T13:16:12;1.30;;;1.20;;
63536;SDS011;49686;51.880;5.632;2023-07-20T13:18:40;1.35;;;0.90;;
63536;SDS011;49686;51.880;5.632;2023-07-20T13:21:07;1.20;;;1.10;;
63536;SDS011;49686;51.880;5.632;2023-07-20T13:23:34;1.50;;;0.80;;
63536;SDS011;49686;51.880;5.632;2023-07-20T13:26:00;0.85;;;0.60;;
63536;SDS011;49686;51.880;5.632;2023-07-20T13:28:27;0.90;;;0.90;;
63536;SDS011;49686;51.880;5.632;2023-07-20T13:30:55;1.40;;;1.10;;
63536;SDS011;49686;51.880;5.632;2023-07-20T13:33:22;1.45;;;1.17;;
63536;SDS011;49686;51.880;5.632;2023-07-20T13:35:53;1.15;;;1.05;;
63536;SDS011;49686;51.880;5.632;2023-07-20T13:38:20;1.48;;;1.00;;
63536;SDS011;49686;51.880;5.632;2023-07-20T13:40:47;1.77;;;1.20;;
63536;SDS011;49686;51.880;5.632;2023-07-20T13:43:13;1.33;;;1.20;;
63536;SDS011;49686;51.880;5.632;2023-07-20T13:45:40;2.08;;;0.90;;
63536;SDS011;49686;51.880;5.632;2023-07-20T13:48:07;3.67;;;0.98;;
63536;SDS011;49686;51.880;5.632;2023-07-20T13:50:34;1.00;;;0.70;;
63536;SDS011;49686;51.880;5.632;2023-07-20T13:53:05;2.28;;;1.25;;
63536;SDS011;49686;51.880;5.632;2023-07-20T13:55:35;1.48;;;0.95;;
63536;SDS011;49686;51.880;5.632;2023-07-20T13:58:04;2.17;;;1.40;;
63536;SDS011;49686;51.880;5.632;2023-07-20T14:00:31;2.22;;;1.00;;
63536;SDS011;49686;51.880;5.632;2023-07-20T14:03:00;2.70;;;0.98;;
63536;SDS011;49686;51.880;5.632;2023-07-20T14:05:30;2.65;;;1.40;;
63536;SDS011;49686;51.880;5.632;2023-07-20T14:08:00;1.25;;;0.70;;
63536;SDS011;49686;51.880;5.632;2023-07-20T14:10:28;1.30;;;0.95;;
63536;SDS011;49686;51.880;5.632;2023-07-20T14:12:55;1.48;;;1.00;;
63536;SDS011;49686;51.880;5.632;2023-07-20T14:15:21;2.45;;;0.90;;
63536;SDS011;49686;51.880;5.632;2023-07-20T14:17:48;2.20;;;1.52;;
63536;SDS011;49686;51.880;5.632;2023-07-20T14:20:15;0.95;;;0.80;;
63536;SDS011;49686;51.880;5.632;2023-07-20T14:22:45;1.77;;;1.30;;
63536;SDS011;49686;51.880;5.632;2023-07-20T14:25:12;2.15;;;1.40;;
63536;SDS011;49686;51.880;5.632;2023-07-20T14:27:40;2.28;;;2.08;;
63536;SDS011;49686;51.880;5.632;2023-07-20T14:30:08;1.50;;;1.40;;
63536;SDS011;49686;51.880;5.632;2023-07-20T14:32:35;3.75;;;0.90;;
63536;SDS011;49686;51.880;5.632;2023-07-20T14:35:02;1.77;;;1.08;;
63536;SDS011;49686;51.880;5.632;2023-07-20T14:37:29;1.42;;;0.85;;
63536;SDS011;49686;51.880;5.632;2023-07-20T14:39:56;1.63;;;1.15;;
63536;SDS011;49686;51.880;5.632;2023-07-20T14:42:22;2.03;;;1.00;;
63536;SDS011;49686;51.880;5.632;2023-07-20T14:44:50;1.58;;;1.20;;
63536;SDS011;49686;51.880;5.632;2023-07-20T14:49:45;3.10;;;1.20;;
63536;SDS011;49686;51.880;5.632;2023-07-20T14:52:11;4.72;;;1.20;;
63536;SDS011;49686;51.880;5.632;2023-07-20T14:54:42;3.17;;;1.40;;
63536;SDS011;49686;51.880;5.632;2023-07-20T14:57:09;0.95;;;0.88;;
63536;SDS011;49686;51.880;5.632;2023-07-20T14:59:36;1.80;;;0.88;;
63536;SDS011;49686;51.880;5.632;2023-07-20T15:02:04;1.63;;;0.90;;
63536;SDS011;49686;51.880;5.632;2023-07-20T15:04:31;2.50;;;0.90;;